sensor_id;sensor_type;location;lat;lon;timestamp;P1;durP1;ratioP1;P2;durP2;ratioP2
13311;SDS011;34033;48.672;9.376;2023-05-21T00:02:01;5.67;;;5.07;;
13311;SDS011;34033;48.672;9.376;2023-05-21T00:04:28;11.60;;;6.03;;
13311;SDS011;34033;48.672;9.376;2023-05-21T00:06:55;10.53;;;6.00;;
13311;SDS011;34033;48.672;9.376;2023-05-21T00:09:22;5.60;;;4.93;;
13311;SDS011;34033;48.672;9.376;2023-05-21T00:11:47;5.57;;;4.90;;
13311;SDS011;34033;48.672;9.376;2023-05-21T00:14:12;6.57;;;4.53;;
13311;SDS011;34033;48.672;9.376;2023-05-21T00:16:38;7.03;;;4.93;;
13311;SDS011;34033;48.672;9.376;2023-05-21T00:19:03;9.03;;;4.97;;
13311;SDS011;34033;48.672;9.376;2023-05-21T00:21:28;9.57;;;5.10;;
13311;SDS011;34033;48.672;9.376;2023-05-21T00:23:55;10.20;;;4.63;;
13311;SDS011;34033;48.672;9.376;2023-05-21T00:26:21;6.50;;;4.20;;
13311;SDS011;34033;48.672;9.376;2023-05-21T00:28:48;9.93;;;4.80;;
13311;SDS011;34033;48.672;9.376;2023-05-21T00:31:13;7.17;;;5.10;;
13311;SDS011;34033;48.672;9.376;2023-05-21T00:33:39;8.77;;;4.63;;
13311;SDS011;34033;48.672;9.376;2023-05-21T00:36:05;6.23;;;4.47;;
13311;SDS011;34033;48.672;9.376;2023-05-21T00:38:30;4.90;;;4.40;;
13311;SDS011;34033;48.672;9.376;2023-05-21T00:40:59;4.50;;;4.10;;
13311;SDS011;34033;48.672;9.376;2023-05-21T00:43:25;8.60;;;4.77;;
13311;SDS011;34033;48.672;9.376;2023-05-21T00:45:51;5.80;;;4.23;;
13311;SDS011;34033;48.672;9.376;2023-05-21T00:48:17;5.13;;;4.57;;
13311;SDS011;34033;48.672;9.376;2023-05-21T00:50:44;8.13;;;3.73;;
13311;SDS011;34033;48.672;9.376;2023-05-21T00:53:10;4.87;;;4.30;;
13311;SDS011;34033;48.672;9.376;2023-05-21T00:55:37;6.93;;;4.50;;
13311;SDS011;34033;48.672;9.376;2023-05-21T00:58:03;5.07;;;4.40;;
13311;SDS011;34033;48.672;9.376;2023-05-21T01:00:33;4.90;;;4.13;;
13311;SDS011;34033;48.672;9.376;2023-05-21T01:02:59;4.77;;;4.33;;
13311;SDS011;34033;48.672;9.376;2023-05-21T01:05:28;5.07;;;4.57;;
13311;SDS011;34033;48.672;9.376;2023-05-21T01:07:54;4.80;;;4.37;;
13311;SDS011;34033;48.672;9.376;2023-05-21T01:10:22;6.37;;;4.80;;
13311;SDS011;34033;48.672;9.376;2023-05-21T01:12:48;7.87;;;4.70;;
13311;SDS011;34033;48.672;9.376;2023-05-21T01:15:14;5.20;;;4.70;;
13311;SDS011;34033;48.672;9.376;2023-05-21T01:17:39;6.00;;;4.63;;
13311;SDS011;34033;48.672;9.376;2023-05-21T01:20:06;5.13;;;4.67;;
13311;SDS011;34033;48.672;9.376;2023-05-21T01:22:35;5.27;;;4.30;;
13311;SDS011;34033;48.672;9.376;2023-05-21T01:25:05;5.47;;;4.40;;
13311;SDS011;34033;48.672;9.376;2023-05-21T01:27:31;5.63;;;4.80;;
13311;SDS011;34033;48.672;9.376;2023-05-21T01:29:56;5.33;;;4.43;;
13311;SDS011;34033;48.672;9.376;2023-05-21T01:32:28;4.60;;;4.20;;
13311;SDS011;34033;48.672;9.376;2023-05-21T01:35:01;5.50;;;4.97;;
13311;SDS011;34033;48.672;9.376;2023-05-21T01:40:01;5.47;;;4.60;;
13311;SDS011;34033;48.672;9.376;2023-05-21T01:42:32;4.50;;;4.10;;
13311;SDS011;34033;48.672;9.376;2023-05-21T01:45:01;5.53;;;4.80;;
13311;SDS011;34033;48.672;9.376;2023-05-21T01:47:30;4.33;;;3.93;;
13311;SDS011;34033;48.672;9.376;2023-05-21T01:49:56;4.57;;;4.17;;
13311;SDS011;34033;48.672;9.376;2023-05-21T01:52:22;6.30;;;4.43;;
13311;SDS011;34033;48.672;9.376;2023-05-21T01:54:48;5.53;;;4.73;;
13311;SDS011;34033;48.672;9.376;2023-05-21T01:57:15;5.87;;;4.70;;
13311;SDS011;34033;48.672;9.376;2023-05-21T01:59:42;5.37;;;4.57;;
13311;SDS011;34033;48.672;9.376;2023-05-21T02:02:08;5.03;;;3.97;;
13311;SDS011;34033;48.672;9.376;2023-05-21T02:04:36;4.67;;;4.20;;
13311;SDS011;34033;48.672;9.376;2023-05-21T02:07:05;5.80;;;5.00;;
13311;SDS011;34033;48.672;9.376;2023-05-21T02:09:31;5.37;;;4.30;;
13311;SDS011;34033;48.672;9.376;2023-05-21T02:11:56;5.20;;;4.70;;
13311;SDS011;34033;48.672;9.376;2023-05-21T02:14:22;4.90;;;4.40;;
13311;SDS011;34033;48.672;9.376;2023-05-21T02:16:49;4.50;;;4.10;;
13311;SDS011;34033;48.672;9.376;2023-05-21T02:19:16;5.43;;;4.53;;
13311;SDS011;34033;48.672;9.376;2023-05-21T02:21:43;5.47;;;4.70;;
13311;SDS011;34033;48.672;9.376;2023-05-21T02:24:08;7.80;;;4.73;;
13311;SDS011;34033;48.672;9.376;2023-05-21T02:26:33;5.73;;;4.37;;
13311;SDS011;34033;48.672;9.376;2023-05-21T02:28:59;5.63;;;4.20;;
13311;SDS011;34033;48.672;9.376;2023-05-21T02:31:24;5.10;;;4.60;;
13311;SDS011;34033;48.672;9.376;2023-05-21T02:33:50;6.53;;;4.40;;
13311;SDS011;34033;48.672;9.376;2023-05-21T02:36:15;4.43;;;4.00;;
13311;SDS011;34033;48.672;9.376;2023-05-21T02:38:42;5.10;;;4.60;;
13311;SDS011;34033;48.672;9.376;2023-05-21T02:41:11;4.87;;;4.37;;
13311;SDS011;34033;48.672;9.376;2023-05-21T02:43:36;4.83;;;4.33;;
13311;SDS011;34033;48.672;9.376;2023-05-21T02:46:03;5.57;;;4.27;;
13311;SDS011;34033;48.672;9.376;2023-05-21T02:48:30;4.60;;;4.20;;
13311;SDS011;34033;48.672;9.376;2023-05-21T02:50:55;4.80;;;4.40;;
13311;SDS011;34033;48.672;9.376;2023-05-21T02:53:20;5.43;;;4.30;;
13311;SDS011;34033;48.672;9.376;2023-05-21T02:55:46;4.20;;;3.80;;
13311;SDS011;34033;48.672;9.376;2023-05-21T02:58:11;5.97;;;4.80;;
13311;SDS011;34033;48.672;9.376;2023-05-21T03:00:37;4.50;;;4.10;;
13311;SDS011;34033;48.672;9.376;2023-05-21T03:03:02;5.40;;;4.43;;
13311;SDS011;34033;48.672;9.376;2023-05-21T03:05:28;5.10;;;4.60;;
13311;SDS011;34033;48.672;9.376;2023-05-21T03:07:53;7.10;;;4.90;;
13311;SDS011;34033;48.672;9.376;2023-05-21T03:10:19;5.50;;;4.73;;
13311;SDS011;34033;48.672;9.376;2023-05-21T03:12:44;6.23;;;5.30;;
13311;SDS011;34033;48.672;9.376;2023-05-21T03:15:09;4.90;;;4.40;;
13311;SDS011;34033;48.672;9.376;2023-05-21T03:17:38;5.30;;;4.80;;
13311;SDS011;34033;48.672;9.376;2023-05-21T03:20:04;5.07;;;4.40;;
13311;SDS011;34033;48.672;9.376;2023-05-21T03:22:32;5.70;;;5.10;;
13311;SDS011;34033;48.672;9.376;2023-05-21T03:24:58;5.13;;;4.67;;
13311;SDS011;34033;48.672;9.376;2023-05-21T03:27:24;5.20;;;4.70;;
13311;SDS011;34033;48.672;9.376;2023-05-21T03:29:49;7.40;;;4.90;;
13311;SDS011;34033;48.672;9.376;2023-05-21T03:32:15;6.90;;;5.03;;
13311;SDS011;34033;48.672;9.376;2023-05-21T03:34:41;6.10;;;5.00;;
13311;SDS011;34033;48.672;9.376;2023-05-21T03:37:06;5.40;;;4.90;;
13311;SDS011;34033;48.672;9.376;2023-05-21T03:39:31;5.33;;;4.80;;
13311;SDS011;34033;48.672;9.376;2023-05-21T03:41:57;5.73;;;4.70;;
13311;SDS011;34033;48.672;9.376;2023-05-21T03:44:22;5.73;;;4.80;;
13311;SDS011;34033;48.672;9.376;2023-05-21T03:46:47;4.73;;;4.33;;
13311;SDS011;34033;48.672;9.376;2023-05-21T03:49:13;5.70;;;5.10;;
13311;SDS011;34033;48.672;9.376;2023-05-21T03:51:38;6.30;;;5.20;;
13311;SDS011;34033;48.672;9.376;2023-05-21T03:54:03;5.23;;;4.73;;
13311;SDS011;34033;48.672;9.376;2023-05-21T03:56:29;10.47;;;4.70;;
13311;SDS011;34033;48.672;9.376;2023-05-21T03:58:55;6.67;;;5.17;;
13311;SDS011;34033;48.672;9.376;2023-05-21T04:01:20;5.70;;;4.93;;
13311;SDS011;34033;48.672;9.376;2023-05-21T04:03:45;5.53;;;4.93;;
13311;SDS011;34033;48.672;9.376;2023-05-21T04:06:11;5.70;;;4.63;;
13311;SDS011;34033;48.672;9.376;2023-05-21T04:08:36;5.17;;;4.67;;
13311;SDS011;34033;48.672;9.376;2023-05-21T04:11:02;6.63;;;5.27;;
13311;SDS011;34033;48.672;9.376;2023-05-21T04:13:27;5.10;;;4.60;;
13311;SDS011;34033;48.672;9.376;2023-05-21T04:15:53;6.97;;;5.10;;
13311;SDS011;34033;48.672;9.376;2023-05-21T04:18:18;7.27;;;5.47;;
13311;SDS011;34033;48.672;9.376;2023-05-21T04:20:44;5.97;;;4.80;;
13311;SDS011;34033;48.672;9.376;2023-05-21T04:23:10;5.50;;;5.00;;
13311;SDS011;34033;48.672;9.376;2023-05-21T04:25:35;5.90;;;5.03;;
13311;SDS011;34033;48.672;9.376;2023-05-21T04:28:03;5.43;;;4.93;;
13311;SDS011;34033;48.672;9.376;2023-05-21T04:30:28;7.27;;;5.37;;
13311;SDS011;34033;48.672;9.376;2023-05-21T04:32:54;7.03;;;5.00;;
13311;SDS011;34033;48.672;9.376;2023-05-21T04:35:19;5.23;;;4.73;;
13311;SDS011;34033;48.672;9.376;2023-05-21T04:37:45;8.17;;;4.90;;
13311;SDS011;34033;48.672;9.376;2023-05-21T04:40:11;7.03;;;5.53;;
13311;SDS011;34033;48.672;9.376;2023-05-21T04:42:42;6.97;;;5.23;;
13311;SDS011;34033;48.672;9.376;2023-05-21T04:45:14;6.07;;;5.47;;
13311;SDS011;34033;48.672;9.376;2023-05-21T04:47:41;5.90;;;4.50;;
13311;SDS011;34033;48.672;9.376;2023-05-21T04:50:07;5.23;;;4.67;;
13311;SDS011;34033;48.672;9.376;2023-05-21T04:52:32;5.77;;;5.17;;
13311;SDS011;34033;48.672;9.376;2023-05-21T04:54:58;5.93;;;4.73;;
13311;SDS011;34033;48.672;9.376;2023-05-21T04:57:24;5.37;;;4.87;;
13311;SDS011;34033;48.672;9.376;2023-05-21T04:59:49;4.50;;;4.10;;
13311;SDS011;34033;48.672;9.376;2023-05-21T05:02:15;7.37;;;4.67;;
13311;SDS011;34033;48.672;9.376;2023-05-21T05:04:40;5.67;;;4.80;;
13311;SDS011;34033;48.672;9.376;2023-05-21T05:07:07;5.07;;;4.40;;
13311;SDS011;34033;48.672;9.376;2023-05-21T05:09:33;5.67;;;4.97;;
13311;SDS011;34033;48.672;9.376;2023-05-21T05:11:58;4.90;;;4.30;;
13311;SDS011;34033;48.672;9.376;2023-05-21T05:14:24;4.93;;;4.43;;
13311;SDS011;34033;48.672;9.376;2023-05-21T05:16:49;5.07;;;4.57;;
13311;SDS011;34033;48.672;9.376;2023-05-21T05:19:14;4.83;;;3.83;;
13311;SDS011;34033;48.672;9.376;2023-05-21T05:21:40;6.10;;;5.07;;
13311;SDS011;34033;48.672;9.376;2023-05-21T05:24:05;5.17;;;4.67;;
13311;SDS011;34033;48.672;9.376;2023-05-21T05:26:30;5.53;;;5.00;;
13311;SDS011;34033;48.672;9.376;2023-05-21T05:28:56;5.40;;;4.90;;
13311;SDS011;34033;48.672;9.376;2023-05-21T05:31:21;4.63;;;4.20;;
13311;SDS011;34033;48.672;9.376;2023-05-21T05:33:47;4.80;;;4.30;;
13311;SDS011;34033;48.672;9.376;2023-05-21T05:36:12;5.90;;;5.13;;
13311;SDS011;34033;48.672;9.376;2023-05-21T05:38:38;4.77;;;4.37;;
13311;SDS011;34033;48.672;9.376;2023-05-21T05:41:04;5.33;;;4.83;;
13311;SDS011;34033;48.672;9.376;2023-05-21T05:43:29;5.50;;;4.87;;
13311;SDS011;34033;48.672;9.376;2023-05-21T05:45:54;6.07;;;5.43;;
13311;SDS011;34033;48.672;9.376;2023-05-21T05:48:20;5.43;;;4.73;;
13311;SDS011;34033;48.672;9.376;2023-05-21T05:50:46;5.57;;;4.97;;
13311;SDS011;34033;48.672;9.376;2023-05-21T05:53:11;6.13;;;5.10;;
13311;SDS011;34033;48.672;9.376;2023-05-21T05:55:37;5.50;;;4.40;;
13311;SDS011;34033;48.672;9.376;2023-05-21T05:58:03;5.37;;;4.87;;
13311;SDS011;34033;48.672;9.376;2023-05-21T06:00:29;5.93;;;5.30;;
13311;SDS011;34033;48.672;9.376;2023-05-21T06:02:54;5.97;;;4.87;;
13311;SDS011;34033;48.672;9.376;2023-05-21T06:05:19;7.07;;;5.03;;
13311;SDS011;34033;48.672;9.376;2023-05-21T06:07:45;6.27;;;4.63;;
13311;SDS011;34033;48.672;9.376;2023-05-21T06:10:10;5.50;;;4.70;;
13311;SDS011;34033;48.672;9.376;2023-05-21T06:12:36;4.97;;;4.50;;
13311;SDS011;34033;48.672;9.376;2023-05-21T06:15:01;8.27;;;5.70;;
13311;SDS011;34033;48.672;9.376;2023-05-21T06:17:27;5.37;;;4.87;;
13311;SDS011;34033;48.672;9.376;2023-05-21T06:19:52;5.97;;;4.97;;
13311;SDS011;34033;48.672;9.376;2023-05-21T06:22:17;7.40;;;5.90;;
13311;SDS011;34033;48.672;9.376;2023-05-21T06:24:43;5.07;;;4.53;;
13311;SDS011;34033;48.672;9.376;2023-05-21T06:27:08;5.50;;;5.00;;
13311;SDS011;34033;48.672;9.376;2023-05-21T06:29:33;5.50;;;4.80;;
13311;SDS011;34033;48.672;9.376;2023-05-21T06:31:59;5.30;;;4.80;;
13311;SDS011;34033;48.672;9.376;2023-05-21T06:34:25;6.00;;;5.27;;
13311;SDS011;34033;48.672;9.376;2023-05-21T06:36:52;6.47;;;5.20;;
13311;SDS011;34033;48.672;9.376;2023-05-21T06:39:17;6.93;;;5.50;;
13311;SDS011;34033;48.672;9.376;2023-05-21T06:41:43;9.30;;;6.27;;
13311;SDS011;34033;48.672;9.376;2023-05-21T06:44:08;8.27;;;7.20;;
13311;SDS011;34033;48.672;9.376;2023-05-21T06:46:34;6.50;;;5.60;;
13311;SDS011;34033;48.672;9.376;2023-05-21T06:48:59;6.20;;;5.17;;
13311;SDS011;34033;48.672;9.376;2023-05-21T06:51:25;6.70;;;6.00;;
13311;SDS011;34033;48.672;9.376;2023-05-21T06:53:50;7.87;;;6.27;;
13311;SDS011;34033;48.672;9.376;2023-05-21T06:56:16;7.30;;;5.70;;
13311;SDS011;34033;48.672;9.376;2023-05-21T06:58:41;5.47;;;4.97;;
13311;SDS011;34033;48.672;9.376;2023-05-21T07:01:06;6.10;;;5.50;;
13311;SDS011;34033;48.672;9.376;2023-05-21T07:03:32;6.60;;;5.97;;
13311;SDS011;34033;48.672;9.376;2023-05-21T07:05:57;8.20;;;6.00;;
13311;SDS011;34033;48.672;9.376;2023-05-21T07:08:22;5.97;;;5.13;;
13311;SDS011;34033;48.672;9.376;2023-05-21T07:10:48;6.10;;;5.40;;
13311;SDS011;34033;48.672;9.376;2023-05-21T07:13:14;7.87;;;5.43;;
13311;SDS011;34033;48.672;9.376;2023-05-21T07:15:40;6.47;;;4.87;;
13311;SDS011;34033;48.672;9.376;2023-05-21T07:18:05;5.80;;;5.20;;
13311;SDS011;34033;48.672;9.376;2023-05-21T07:20:31;6.20;;;5.40;;
13311;SDS011;34033;48.672;9.376;2023-05-21T07:22:56;7.57;;;5.40;;
13311;SDS011;34033;48.672;9.376;2023-05-21T07:25:21;5.27;;;4.77;;
13311;SDS011;34033;48.672;9.376;2023-05-21T07:27:47;5.73;;;5.23;;
13311;SDS011;34033;48.672;9.376;2023-05-21T07:30:12;5.47;;;4.97;;
13311;SDS011;34033;48.672;9.376;2023-05-21T07:32:38;6.50;;;5.80;;
13311;SDS011;34033;48.672;9.376;2023-05-21T07:35:03;6.07;;;5.47;;
13311;SDS011;34033;48.672;9.376;2023-05-21T07:37:29;6.47;;;4.87;;
13311;SDS011;34033;48.672;9.376;2023-05-21T07:39:56;5.63;;;4.93;;
13311;SDS011;34033;48.672;9.376;2023-05-21T07:42:24;5.10;;;4.60;;
13311;SDS011;34033;48.672;9.376;2023-05-21T07:44:50;6.70;;;5.57;;
13311;SDS011;34033;48.672;9.376;2023-05-21T07:47:15;5.20;;;4.70;;
13311;SDS011;34033;48.672;9.376;2023-05-21T07:49:40;5.80;;;5.00;;
13311;SDS011;34033;48.672;9.376;2023-05-21T07:52:06;5.60;;;5.10;;
13311;SDS011;34033;48.672;9.376;2023-05-21T07:54:31;5.50;;;5.00;;
13311;SDS011;34033;48.672;9.376;2023-05-21T07:56:57;5.43;;;4.93;;
13311;SDS011;34033;48.672;9.376;2023-05-21T07:59:23;5.40;;;4.60;;
13311;SDS011;34033;48.672;9.376;2023-05-21T08:01:48;4.70;;;4.30;;
13311;SDS011;34033;48.672;9.376;2023-05-21T08:04:14;5.13;;;4.63;;
13311;SDS011;34033;48.672;9.376;2023-05-21T08:06:39;5.50;;;4.97;;
13311;SDS011;34033;48.672;9.376;2023-05-21T08:09:04;6.43;;;5.27;;
13311;SDS011;34033;48.672;9.376;2023-05-21T08:11:30;5.83;;;5.27;;
13311;SDS011;34033;48.672;9.376;2023-05-21T08:13:56;6.20;;;5.60;;
13311;SDS011;34033;48.672;9.376;2023-05-21T08:16:21;5.63;;;5.13;;
13311;SDS011;34033;48.672;9.376;2023-05-21T08:18:47;5.40;;;4.90;;
13311;SDS011;34033;48.672;9.376;2023-05-21T08:21:13;5.50;;;5.00;;
13311;SDS011;34033;48.672;9.376;2023-05-21T08:23:38;5.20;;;4.70;;
13311;SDS011;34033;48.672;9.376;2023-05-21T08:26:03;5.43;;;4.93;;
13311;SDS011;34033;48.672;9.376;2023-05-21T08:28:29;5.53;;;4.90;;
13311;SDS011;34033;48.672;9.376;2023-05-21T08:30:54;5.93;;;5.33;;
13311;SDS011;34033;48.672;9.376;2023-05-21T08:33:20;6.00;;;4.83;;
13311;SDS011;34033;48.672;9.376;2023-05-21T08:35:45;8.07;;;5.67;;
13311;SDS011;34033;48.672;9.376;2023-05-21T08:38:10;6.23;;;5.23;;
13311;SDS011;34033;48.672;9.376;2023-05-21T08:40:36;6.50;;;5.63;;
13311;SDS011;34033;48.672;9.376;2023-05-21T08:43:01;6.53;;;5.93;;
13311;SDS011;34033;48.672;9.376;2023-05-21T08:45:27;5.70;;;5.20;;
13311;SDS011;34033;48.672;9.376;2023-05-21T08:48:02;5.37;;;4.87;;
13311;SDS011;34033;48.672;9.376;2023-05-21T08:50:28;5.90;;;5.23;;
13311;SDS011;34033;48.672;9.376;2023-05-21T08:52:55;5.80;;;5.17;;
13311;SDS011;34033;48.672;9.376;2023-05-21T08:55:22;6.10;;;4.87;;
13311;SDS011;34033;48.672;9.376;2023-05-21T08:57:48;5.57;;;5.00;;
13311;SDS011;34033;48.672;9.376;2023-05-21T09:00:14;5.37;;;4.87;;
13311;SDS011;34033;48.672;9.376;2023-05-21T09:02:40;5.83;;;5.23;;
13311;SDS011;34033;48.672;9.376;2023-05-21T09:05:07;8.10;;;5.13;;
13311;SDS011;34033;48.672;9.376;2023-05-21T09:07:42;5.53;;;4.93;;
13311;SDS011;34033;48.672;9.376;2023-05-21T09:10:12;4.83;;;4.40;;
13311;SDS011;34033;48.672;9.376;2023-05-21T09:12:38;4.87;;;4.40;;
13311;SDS011;34033;48.672;9.376;2023-05-21T09:15:04;5.50;;;5.00;;
13311;SDS011;34033;48.672;9.376;2023-05-21T09:17:30;4.97;;;4.53;;
13311;SDS011;34033;48.672;9.376;2023-05-21T09:22:40;5.03;;;4.43;;
13311;SDS011;34033;48.672;9.376;2023-05-21T09:25:08;5.60;;;5.00;;
13311;SDS011;34033;48.672;9.376;2023-05-21T09:27:38;4.97;;;4.57;;
13311;SDS011;34033;48.672;9.376;2023-05-21T09:30:04;5.47;;;4.80;;
13311;SDS011;34033;48.672;9.376;2023-05-21T09:32:35;4.90;;;4.50;;
13311;SDS011;34033;48.672;9.376;2023-05-21T09:35:05;4.80;;;4.30;;
13311;SDS011;34033;48.672;9.376;2023-05-21T09:42:37;6.10;;;4.90;;
13311;SDS011;34033;48.672;9.376;2023-05-21T09:45:03;5.83;;;4.33;;
13311;SDS011;34033;48.672;9.376;2023-05-21T09:47:30;5.13;;;4.63;;
13311;SDS011;34033;48.672;9.376;2023-05-21T09:49:58;4.40;;;4.00;;
13311;SDS011;34033;48.672;9.376;2023-05-21T09:52:24;4.53;;;4.10;;
13311;SDS011;34033;48.672;9.376;2023-05-21T09:54:50;6.47;;;4.20;;
13311;SDS011;34033;48.672;9.376;2023-05-21T09:57:21;4.80;;;4.40;;
13311;SDS011;34033;48.672;9.376;2023-05-21T09:59:48;4.93;;;4.23;;
13311;SDS011;34033;48.672;9.376;2023-05-21T10:02:21;4.60;;;4.20;;
13311;SDS011;34033;48.672;9.376;2023-05-21T10:04:49;5.13;;;4.40;;
13311;SDS011;34033;48.672;9.376;2023-05-21T10:07:19;4.60;;;4.20;;
13311;SDS011;34033;48.672;9.376;2023-05-21T10:09:49;3.97;;;3.67;;
13311;SDS011;34033;48.672;9.376;2023-05-21T10:12:18;4.77;;;4.17;;
13311;SDS011;34033;48.672;9.376;2023-05-21T10:14:48;4.67;;;4.27;;
13311;SDS011;34033;48.672;9.376;2023-05-21T10:17:16;4.90;;;4.50;;
13311;SDS011;34033;48.672;9.376;2023-05-21T10:19:42;4.07;;;3.77;;
13311;SDS011;34033;48.672;9.376;2023-05-21T10:22:10;4.20;;;3.90;;
13311;SDS011;34033;48.672;9.376;2023-05-21T10:24:36;4.37;;;3.97;;
13311;SDS011;34033;48.672;9.376;2023-05-21T10:27:04;4.30;;;3.90;;
13311;SDS011;34033;48.672;9.376;2023-05-21T10:29:31;5.53;;;3.97;;
13311;SDS011;34033;48.672;9.376;2023-05-21T10:31:57;3.67;;;3.37;;
13311;SDS011;34033;48.672;9.376;2023-05-21T10:34:24;7.13;;;4.10;;
13311;SDS011;34033;48.672;9.376;2023-05-21T10:36:52;4.43;;;4.03;;
13311;SDS011;34033;48.672;9.376;2023-05-21T10:39:19;3.50;;;3.20;;
13311;SDS011;34033;48.672;9.376;2023-05-21T10:41:49;3.97;;;3.67;;
13311;SDS011;34033;48.672;9.376;2023-05-21T10:44:33;5.13;;;3.83;;
13311;SDS011;34033;48.672;9.376;2023-05-21T10:50:08;3.70;;;3.40;;
13311;SDS011;34033;48.672;9.376;2023-05-21T10:58:27;5.57;;;4.00;;
13311;SDS011;34033;48.672;9.376;2023-05-21T11:01:05;4.27;;;3.87;;
13311;SDS011;34033;48.672;9.376;2023-05-21T11:03:31;4.20;;;3.87;;
13311;SDS011;34033;48.672;9.376;2023-05-21T11:05:58;3.90;;;3.60;;
13311;SDS011;34033;48.672;9.376;2023-05-21T11:08:28;4.37;;;3.97;;
13311;SDS011;34033;48.672;9.376;2023-05-21T11:10:57;3.90;;;3.60;;
13311;SDS011;34033;48.672;9.376;2023-05-21T11:13:23;4.33;;;3.57;;
13311;SDS011;34033;48.672;9.376;2023-05-21T11:21:04;4.80;;;3.43;;
13311;SDS011;34033;48.672;9.376;2023-05-21T11:26:25;3.43;;;3.20;;
13311;SDS011;34033;48.672;9.376;2023-05-21T11:31:29;4.30;;;3.90;;
13311;SDS011;34033;48.672;9.376;2023-05-21T11:36:33;4.00;;;3.70;;
13311;SDS011;34033;48.672;9.376;2023-05-21T11:41:57;4.50;;;4.00;;
13311;SDS011;34033;48.672;9.376;2023-05-21T11:47:09;4.17;;;3.43;;
13311;SDS011;34033;48.672;9.376;2023-05-21T11:49:45;4.10;;;3.80;;
13311;SDS011;34033;48.672;9.376;2023-05-21T11:52:11;4.13;;;3.80;;
13311;SDS011;34033;48.672;9.376;2023-05-21T11:54:47;4.23;;;3.83;;
13311;SDS011;34033;48.672;9.376;2023-05-21T11:57:15;4.10;;;3.80;;
13311;SDS011;34033;48.672;9.376;2023-05-21T11:59:43;4.17;;;3.80;;
13311;SDS011;34033;48.672;9.376;2023-05-21T12:02:12;4.10;;;3.80;;
13311;SDS011;34033;48.672;9.376;2023-05-21T12:04:39;4.60;;;3.80;;
13311;SDS011;34033;48.672;9.376;2023-05-21T12:07:06;5.10;;;4.00;;
13311;SDS011;34033;48.672;9.376;2023-05-21T12:09:39;4.30;;;3.90;;
13311;SDS011;34033;48.672;9.376;2023-05-21T12:12:09;5.23;;;3.77;;
13311;SDS011;34033;48.672;9.376;2023-05-21T12:14:37;4.17;;;3.83;;
13311;SDS011;34033;48.672;9.376;2023-05-21T12:17:03;3.90;;;3.60;;
13311;SDS011;34033;48.672;9.376;2023-05-21T12:19:32;4.17;;;3.87;;
13311;SDS011;34033;48.672;9.376;2023-05-21T12:22:02;4.20;;;3.80;;
13311;SDS011;34033;48.672;9.376;2023-05-21T12:24:28;3.80;;;3.50;;
13311;SDS011;34033;48.672;9.376;2023-05-21T12:26:54;3.70;;;3.40;;
13311;SDS011;34033;48.672;9.376;2023-05-21T12:29:23;4.17;;;3.87;;
13311;SDS011;34033;48.672;9.376;2023-05-21T12:31:50;4.13;;;3.50;;
13311;SDS011;34033;48.672;9.376;2023-05-21T12:34:15;4.23;;;3.83;;
13311;SDS011;34033;48.672;9.376;2023-05-21T12:37:01;3.63;;;3.33;;
13311;SDS011;34033;48.672;9.376;2023-05-21T12:39:29;5.80;;;3.80;;
13311;SDS011;34033;48.672;9.376;2023-05-21T12:41:55;3.80;;;3.50;;
13311;SDS011;34033;48.672;9.376;2023-05-21T12:44:20;3.77;;;3.47;;
13311;SDS011;34033;48.672;9.376;2023-05-21T12:46:46;4.37;;;3.33;;
13311;SDS011;34033;48.672;9.376;2023-05-21T12:51:57;8.10;;;4.20;;
13311;SDS011;34033;48.672;9.376;2023-05-21T12:54:32;3.83;;;3.53;;
13311;SDS011;34033;48.672;9.376;2023-05-21T12:57:06;4.07;;;3.53;;
13311;SDS011;34033;48.672;9.376;2023-05-21T12:59:47;4.27;;;3.87;;
13311;SDS011;34033;48.672;9.376;2023-05-21T13:04:53;3.43;;;3.13;;
13311;SDS011;34033;48.672;9.376;2023-05-21T13:07:19;3.70;;;3.40;;
13311;SDS011;34033;48.672;9.376;2023-05-21T13:09:45;3.40;;;3.10;;
13311;SDS011;34033;48.672;9.376;2023-05-21T13:12:10;4.28;;;3.10;;
13311;SDS011;34033;48.672;9.376;2023-05-21T13:14:37;3.50;;;3.30;;
13311;SDS011;34033;48.672;9.376;2023-05-21T13:17:02;3.67;;;3.27;;
13311;SDS011;34033;48.672;9.376;2023-05-21T13:19:28;3.45;;;3.15;;
13311;SDS011;34033;48.672;9.376;2023-05-21T13:21:53;4.27;;;2.93;;
13311;SDS011;34033;48.672;9.376;2023-05-21T13:24:19;2.95;;;2.80;;
13311;SDS011;34033;48.672;9.376;2023-05-21T13:26:44;3.80;;;3.50;;
13311;SDS011;34033;48.672;9.376;2023-05-21T13:29:09;3.40;;;3.20;;
13311;SDS011;34033;48.672;9.376;2023-05-21T13:31:38;3.40;;;3.10;;
13311;SDS011;34033;48.672;9.376;2023-05-21T13:34:04;3.28;;;2.97;;
13311;SDS011;34033;48.672;9.376;2023-05-21T13:36:31;7.90;;;3.45;;
13311;SDS011;34033;48.672;9.376;2023-05-21T13:38:57;3.60;;;3.30;;
13311;SDS011;34033;48.672;9.376;2023-05-21T13:41:22;3.10;;;2.90;;
13311;SDS011;34033;48.672;9.376;2023-05-21T13:43:47;3.70;;;3.35;;
13311;SDS011;34033;48.672;9.376;2023-05-21T13:46:13;3.53;;;3.33;;
13311;SDS011;34033;48.672;9.376;2023-05-21T13:48:38;3.30;;;3.10;;
13311;SDS011;34033;48.672;9.376;2023-05-21T13:51:04;3.78;;;3.20;;
13311;SDS011;34033;48.672;9.376;2023-05-21T13:53:29;3.40;;;3.20;;
13311;SDS011;34033;48.672;9.376;2023-05-21T13:55:55;3.75;;;3.45;;
13311;SDS011;34033;48.672;9.376;2023-05-21T13:58:20;3.67;;;3.42;;
13311;SDS011;34033;48.672;9.376;2023-05-21T14:00:45;3.60;;;3.30;;
13311;SDS011;34033;48.672;9.376;2023-05-21T14:03:11;3.67;;;3.28;;
13311;SDS011;34033;48.672;9.376;2023-05-21T14:05:36;3.45;;;3.15;;
13311;SDS011;34033;48.672;9.376;2023-05-21T14:08:02;3.45;;;3.15;;
13311;SDS011;34033;48.672;9.376;2023-05-21T14:10:28;3.17;;;2.90;;
13311;SDS011;34033;48.672;9.376;2023-05-21T14:12:53;3.63;;;3.10;;
13311;SDS011;34033;48.672;9.376;2023-05-21T14:15:18;3.63;;;3.33;;
13311;SDS011;34033;48.672;9.376;2023-05-21T14:17:44;3.50;;;3.20;;
13311;SDS011;34033;48.672;9.376;2023-05-21T14:20:09;3.42;;;3.13;;
13311;SDS011;34033;48.672;9.376;2023-05-21T14:22:35;3.40;;;3.20;;
13311;SDS011;34033;48.672;9.376;2023-05-21T14:25:01;3.67;;;3.40;;
13311;SDS011;34033;48.672;9.376;2023-05-21T14:27:27;4.67;;;3.93;;
13311;SDS011;34033;48.672;9.376;2023-05-21T14:29:52;3.80;;;3.50;;
13311;SDS011;34033;48.672;9.376;2023-05-21T14:32:17;3.57;;;3.27;;
13311;SDS011;34033;48.672;9.376;2023-05-21T14:34:43;3.73;;;3.43;;
13311;SDS011;34033;48.672;9.376;2023-05-21T14:37:08;3.23;;;3.03;;
13311;SDS011;34033;48.672;9.376;2023-05-21T14:39:33;3.33;;;3.07;;
13311;SDS011;34033;48.672;9.376;2023-05-21T14:42:01;4.03;;;3.63;;
13311;SDS011;34033;48.672;9.376;2023-05-21T14:44:27;3.77;;;3.20;;
13311;SDS011;34033;48.672;9.376;2023-05-21T14:46:52;3.70;;;3.40;;
13311;SDS011;34033;48.672;9.376;2023-05-21T14:49:18;3.70;;;3.40;;
13311;SDS011;34033;48.672;9.376;2023-05-21T14:51:43;4.37;;;3.97;;
13311;SDS011;34033;48.672;9.376;2023-05-21T14:54:08;4.00;;;3.70;;
13311;SDS011;34033;48.672;9.376;2023-05-21T14:56:34;3.17;;;2.97;;
13311;SDS011;34033;48.672;9.376;2023-05-21T14:58:59;3.27;;;2.97;;
13311;SDS011;34033;48.672;9.376;2023-05-21T15:01:24;3.50;;;3.20;;
13311;SDS011;34033;48.672;9.376;2023-05-21T15:03:50;3.63;;;3.33;;
13311;SDS011;34033;48.672;9.376;2023-05-21T15:06:15;3.40;;;3.10;;
13311;SDS011;34033;48.672;9.376;2023-05-21T15:08:41;4.00;;;3.40;;
13311;SDS011;34033;48.672;9.376;2023-05-21T15:11:06;3.50;;;3.13;;
13311;SDS011;34033;48.672;9.376;2023-05-21T15:13:33;3.77;;;3.47;;
13311;SDS011;34033;48.672;9.376;2023-05-21T15:15:59;3.83;;;3.50;;
13311;SDS011;34033;48.672;9.376;2023-05-21T15:18:24;3.37;;;3.07;;
13311;SDS011;34033;48.672;9.376;2023-05-21T15:20:50;5.13;;;3.17;;
13311;SDS011;34033;48.672;9.376;2023-05-21T15:23:15;6.20;;;3.60;;
13311;SDS011;34033;48.672;9.376;2023-05-21T15:25:40;4.97;;;3.93;;
13311;SDS011;34033;48.672;9.376;2023-05-21T15:28:06;10.90;;;6.73;;